sensor_id;sensor_type;location;lat;lon;timestamp;temperature;humidity
13850;DHT22;6995;52.618;13.488;2023-05-16T00:00:42;14.70;99.90
13850;DHT22;6995;52.618;13.488;2023-05-16T00:03:08;14.70;99.90
13850;DHT22;6995;52.618;13.488;2023-05-16T00:05:49;14.70;99.90
13850;DHT22;6995;52.618;13.488;2023-05-16T00:08:15;14.60;99.90
13850;DHT22;6995;52.618;13.488;2023-05-16T00:10:41;14.60;99.90
13850;DHT22;6995;52.618;13.488;2023-05-16T00:13:06;14.60;99.90
13850;DHT22;6995;52.618;13.488;2023-05-16T00:15:32;14.60;99.90
13850;DHT22;6995;52.618;13.488;2023-05-16T00:17:58;14.50;99.90
13850;DHT22;6995;52.618;13.488;2023-05-16T00:20:26;14.50;99.90
13850;DHT22;6995;52.618;13.488;2023-05-16T00:22:53;14.50;99.90
13850;DHT22;6995;52.618;13.488;2023-05-16T00:25:19;14.40;99.90
13850;DHT22;6995;52.618;13.488;2023-05-16T00:27:45;14.40;99.90
13850;DHT22;6995;52.618;13.488;2023-05-16T00:30:11;14.50;99.90
13850;DHT22;6995;52.618;13.488;2023-05-16T00:32:37;14.40;99.90
13850;DHT22;6995;52.618;13.488;2023-05-16T00:35:03;14.30;99.90
13850;DHT22;6995;52.618;13.488;2023-05-16T00:37:28;14.30;99.90
13850;DHT22;6995;52.618;13.488;2023-05-16T00:39:54;14.30;99.90
13850;DHT22;6995;52.618;13.488;2023-05-16T00:42:24;14.30;99.90
13850;DHT22;6995;52.618;13.488;2023-05-16T00:44:49;14.20;99.90
13850;DHT22;6995;52.618;13.488;2023-05-16T00:47:15;14.20;99.90
13850;DHT22;6995;52.618;13.488;2023-05-16T00:49:41;14.20;99.90
13850;DHT22;6995;52.618;13.488;2023-05-16T00:52:06;14.20;99.90
13850;DHT22;6995;52.618;13.488;2023-05-16T00:54:33;14.10;99.90
13850;DHT22;6995;52.618;13.488;2023-05-16T00:56:58;14.10;99.90
13850;DHT22;6995;52.618;13.488;2023-05-16T00:59:24;14.00;99.90
13850;DHT22;6995;52.618;13.488;2023-05-16T01:01:51;14.00;99.90
13850;DHT22;6995;52.618;13.488;2023-05-16T01:04:17;13.90;99.90
13850;DHT22;6995;52.618;13.488;2023-05-16T01:06:43;13.90;99.90
13850;DHT22;6995;52.618;13.488;2023-05-16T01:09:09;13.90;99.90
13850;DHT22;6995;52.618;13.488;2023-05-16T01:17:49;13.70;99.90
13850;DHT22;6995;52.618;13.488;2023-05-16T01:27:58;13.50;99.90
13850;DHT22;6995;52.618;13.488;2023-05-16T01:30:47;13.40;99.90
13850;DHT22;6995;52.618;13.488;2023-05-16T01:33:15;13.30;99.90
13850;DHT22;6995;52.618;13.488;2023-05-16T01:38:31;13.30;99.90
13850;DHT22;6995;52.618;13.488;2023-05-16T01:41:26;13.20;99.90
13850;DHT22;6995;52.618;13.488;2023-05-16T01:44:01;13.20;99.90
13850;DHT22;6995;52.618;13.488;2023-05-16T01:46:32;13.20;99.90
13850;DHT22;6995;52.618;13.488;2023-05-16T01:49:08;13.10;99.90
13850;DHT22;6995;52.618;13.488;2023-05-16T01:51:41;13.10;99.90
13850;DHT22;6995;52.618;13.488;2023-05-16T01:54:12;13.00;99.90
13850;DHT22;6995;52.618;13.488;2023-05-16T01:56:41;13.00;99.90
13850;DHT22;6995;52.618;13.488;2023-05-16T01:59:10;12.90;99.90
13850;DHT22;6995;52.618;13.488;2023-05-16T02:01:36;12.90;99.90
13850;DHT22;6995;52.618;13.488;2023-05-16T02:04:02;12.90;99.90
13850;DHT22;6995;52.618;13.488;2023-05-16T02:06:28;12.90;99.90
13850;DHT22;6995;52.618;13.488;2023-05-16T02:08:53;12.90;99.90
13850;DHT22;6995;52.618;13.488;2023-05-16T02:11:19;12.90;99.90
13850;DHT22;6995;52.618;13.488;2023-05-16T02:13:45;12.90;99.90
13850;DHT22;6995;52.618;13.488;2023-05-16T02:16:11;12.80;99.90
13850;DHT22;6995;52.618;13.488;2023-05-16T02:18:37;12.80;99.90
13850;DHT22;6995;52.618;13.488;2023-05-16T02:21:03;12.80;99.90
13850;DHT22;6995;52.618;13.488;2023-05-16T02:23:28;12.70;99.90
13850;DHT22;6995;52.618;13.488;2023-05-16T02:25:54;12.70;99.90
13850;DHT22;6995;52.618;13.488;2023-05-16T02:28:20;12.60;99.90
13850;DHT22;6995;52.618;13.488;2023-05-16T02:30:45;12.60;99.90
13850;DHT22;6995;52.618;13.488;2023-05-16T02:33:11;12.50;99.90
13850;DHT22;6995;52.618;13.488;2023-05-16T02:35:36;12.40;99.90
13850;DHT22;6995;52.618;13.488;2023-05-16T02:38:02;12.40;99.90
13850;DHT22;6995;52.618;13.488;2023-05-16T02:40:27;12.20;99.90
13850;DHT22;6995;52.618;13.488;2023-05-16T02:42:53;12.20;99.90
13850;DHT22;6995;52.618;13.488;2023-05-16T02:45:19;12.30;99.90
13850;DHT22;6995;52.618;13.488;2023-05-16T02:47:44;12.30;99.90
13850;DHT22;6995;52.618;13.488;2023-05-16T02:50:10;12.10;99.90
13850;DHT22;6995;52.618;13.488;2023-05-16T02:52:36;12.10;99.90
13850;DHT22;6995;52.618;13.488;2023-05-16T02:55:01;12.10;99.90
13850;DHT22;6995;52.618;13.488;2023-05-16T02:57:27;12.10;99.90
13850;DHT22;6995;52.618;13.488;2023-05-16T02:59:52;12.10;99.90
13850;DHT22;6995;52.618;13.488;2023-05-16T03:02:26;12.20;99.90
13850;DHT22;6995;52.618;13.488;2023-05-16T03:04:52;12.10;99.90
13850;DHT22;6995;52.618;13.488;2023-05-16T03:07:17;12.00;99.90
13850;DHT22;6995;52.618;13.488;2023-05-16T03:09:43;12.00;99.90
13850;DHT22;6995;52.618;13.488;2023-05-16T03:12:08;12.00;99.90
13850;DHT22;6995;52.618;13.488;2023-05-16T03:14:34;12.00;99.90
13850;DHT22;6995;52.618;13.488;2023-05-16T03:17:00;12.00;99.90
13850;DHT22;6995;52.618;13.488;2023-05-16T03:19:25;12.00;99.90
13850;DHT22;6995;52.618;13.488;2023-05-16T03:21:51;12.00;99.90
13850;DHT22;6995;52.618;13.488;2023-05-16T03:24:17;11.80;99.90
13850;DHT22;6995;52.618;13.488;2023-05-16T03:26:42;11.90;99.90
13850;DHT22;6995;52.618;13.488;2023-05-16T03:29:08;11.90;99.90
13850;DHT22;6995;52.618;13.488;2023-05-16T03:31:34;11.90;99.90
13850;DHT22;6995;52.618;13.488;2023-05-16T03:34:00;11.90;99.90
13850;DHT22;6995;52.618;13.488;2023-05-16T03:36:26;11.90;99.90
13850;DHT22;6995;52.618;13.488;2023-05-16T03:38:51;11.90;99.90
13850;DHT22;6995;52.618;13.488;2023-05-16T03:41:17;11.90;99.90
13850;DHT22;6995;52.618;13.488;2023-05-16T03:43:43;12.00;99.90
13850;DHT22;6995;52.618;13.488;2023-05-16T03:46:08;11.90;99.90
13850;DHT22;6995;52.618;13.488;2023-05-16T03:48:34;11.90;99.90
13850;DHT22;6995;52.618;13.488;2023-05-16T03:50:59;11.90;99.90
13850;DHT22;6995;52.618;13.488;2023-05-16T03:53:25;11.80;99.90
13850;DHT22;6995;52.618;13.488;2023-05-16T03:55:51;11.90;99.90
13850;DHT22;6995;52.618;13.488;2023-05-16T03:58:16;11.90;99.90
13850;DHT22;6995;52.618;13.488;2023-05-16T04:00:42;11.90;99.90
13850;DHT22;6995;52.618;13.488;2023-05-16T04:03:08;11.80;99.90
13850;DHT22;6995;52.618;13.488;2023-05-16T04:05:33;11.80;99.90
13850;DHT22;6995;52.618;13.488;2023-05-16T04:07:59;11.90;99.90
13850;DHT22;6995;52.618;13.488;2023-05-16T04:10:24;11.90;99.90
13850;DHT22;6995;52.618;13.488;2023-05-16T04:12:50;11.90;99.90
13850;DHT22;6995;52.618;13.488;2023-05-16T04:15:16;11.90;99.90
13850;DHT22;6995;52.618;13.488;2023-05-16T04:17:44;11.80;99.90
13850;DHT22;6995;52.618;13.488;2023-05-16T04:20:10;11.70;99.90
13850;DHT22;6995;52.618;13.488;2023-05-16T04:22:37;11.70;99.90
13850;DHT22;6995;52.618;13.488;2023-05-16T04:25:02;11.80;99.90
13850;DHT22;6995;52.618;13.488;2023-05-16T04:27:28;11.80;99.90
13850;DHT22;6995;52.618;13.488;2023-05-16T04:29:55;11.80;99.90
13850;DHT22;6995;52.618;13.488;2023-05-16T04:32:20;11.80;99.90
13850;DHT22;6995;52.618;13.488;2023-05-16T04:34:48;11.80;99.90
13850;DHT22;6995;52.618;13.488;2023-05-16T04:37:21;11.70;99.90
13850;DHT22;6995;52.618;13.488;2023-05-16T04:39:47;11.70;99.90
13850;DHT22;6995;52.618;13.488;2023-05-16T04:42:12;11.60;99.90
13850;DHT22;6995;52.618;13.488;2023-05-16T04:44:38;11.50;99.90
13850;DHT22;6995;52.618;13.488;2023-05-16T04:47:04;11.70;99.90
13850;DHT22;6995;52.618;13.488;2023-05-16T04:49:30;11.70;99.90
13850;DHT22;6995;52.618;13.488;2023-05-16T04:51:55;11.50;99.90
13850;DHT22;6995;52.618;13.488;2023-05-16T04:54:21;11.60;99.90
13850;DHT22;6995;52.618;13.488;2023-05-16T04:56:49;11.50;99.90
13850;DHT22;6995;52.618;13.488;2023-05-16T04:59:14;11.50;99.90
13850;DHT22;6995;52.618;13.488;2023-05-16T05:01:40;11.40;99.90
13850;DHT22;6995;52.618;13.488;2023-05-16T05:04:06;11.40;99.90
13850;DHT22;6995;52.618;13.488;2023-05-16T05:06:38;11.40;99.90
13850;DHT22;6995;52.618;13.488;2023-05-16T05:09:04;11.40;99.90
13850;DHT22;6995;52.618;13.488;2023-05-16T05:11:32;11.40;99.90
13850;DHT22;6995;52.618;13.488;2023-05-16T05:14:03;11.30;99.90
13850;DHT22;6995;52.618;13.488;2023-05-16T05:16:29;11.30;99.90
13850;DHT22;6995;52.618;13.488;2023-05-16T05:18:54;11.30;99.90
13850;DHT22;6995;52.618;13.488;2023-05-16T05:21:20;11.40;99.90
13850;DHT22;6995;52.618;13.488;2023-05-16T05:23:48;11.20;99.90
13850;DHT22;6995;52.618;13.488;2023-05-16T05:26:14;11.10;99.90
13850;DHT22;6995;52.618;13.488;2023-05-16T05:28:39;11.10;99.90
13850;DHT22;6995;52.618;13.488;2023-05-16T05:31:07;11.10;99.90
13850;DHT22;6995;52.618;13.488;2023-05-16T05:33:33;11.20;99.90
13850;DHT22;6995;52.618;13.488;2023-05-16T05:35:59;11.10;99.90
13850;DHT22;6995;52.618;13.488;2023-05-16T05:38:24;11.10;99.90
13850;DHT22;6995;52.618;13.488;2023-05-16T05:40:50;11.20;99.90
13850;DHT22;6995;52.618;13.488;2023-05-16T05:43:16;11.10;99.90
13850;DHT22;6995;52.618;13.488;2023-05-16T05:45:42;11.00;99.90
13850;DHT22;6995;52.618;13.488;2023-05-16T05:48:08;11.10;99.90
13850;DHT22;6995;52.618;13.488;2023-05-16T05:50:35;11.10;99.90
13850;DHT22;6995;52.618;13.488;2023-05-16T05:53:04;11.20;99.90
13850;DHT22;6995;52.618;13.488;2023-05-16T05:55:31;11.20;99.90
13850;DHT22;6995;52.618;13.488;2023-05-16T05:57:57;11.20;99.90
13850;DHT22;6995;52.618;13.488;2023-05-16T06:00:22;11.30;99.90
13850;DHT22;6995;52.618;13.488;2023-05-16T06:02:48;11.20;99.90
13850;DHT22;6995;52.618;13.488;2023-05-16T06:05:14;11.30;99.90
13850;DHT22;6995;52.618;13.488;2023-05-16T06:07:39;11.40;99.90
13850;DHT22;6995;52.618;13.488;2023-05-16T06:10:05;11.40;99.90
13850;DHT22;6995;52.618;13.488;2023-05-16T06:12:32;11.40;99.90
13850;DHT22;6995;52.618;13.488;2023-05-16T06:14:58;11.50;99.90
13850;DHT22;6995;52.618;13.488;2023-05-16T06:17:24;11.40;99.90
13850;DHT22;6995;52.618;13.488;2023-05-16T06:19:49;11.60;99.90
13850;DHT22;6995;52.618;13.488;2023-05-16T06:22:15;11.60;99.90
13850;DHT22;6995;52.618;13.488;2023-05-16T06:24:41;11.40;99.90
13850;DHT22;6995;52.618;13.488;2023-05-16T06:27:07;11.60;99.90
13850;DHT22;6995;52.618;13.488;2023-05-16T06:29:34;11.70;99.90
13850;DHT22;6995;52.618;13.488;2023-05-16T06:32:00;11.80;99.90
13850;DHT22;6995;52.618;13.488;2023-05-16T06:34:35;12.00;99.90
13850;DHT22;6995;52.618;13.488;2023-05-16T06:37:01;11.80;99.90
13850;DHT22;6995;52.618;13.488;2023-05-16T06:39:28;11.70;99.90
13850;DHT22;6995;52.618;13.488;2023-05-16T06:41:57;11.80;99.90
13850;DHT22;6995;52.618;13.488;2023-05-16T06:44:23;11.80;99.90
13850;DHT22;6995;52.618;13.488;2023-05-16T06:46:48;11.80;99.90
13850;DHT22;6995;52.618;13.488;2023-05-16T06:49:14;12.00;99.90
13850;DHT22;6995;52.618;13.488;2023-05-16T06:51:40;11.80;99.90
13850;DHT22;6995;52.618;13.488;2023-05-16T06:54:06;11.80;99.90
13850;DHT22;6995;52.618;13.488;2023-05-16T06:56:31;11.70;99.90
13850;DHT22;6995;52.618;13.488;2023-05-16T06:58:57;11.80;99.90
13850;DHT22;6995;52.618;13.488;2023-05-16T07:01:23;11.70;99.90
13850;DHT22;6995;52.618;13.488;2023-05-16T07:03:48;11.80;99.90
13850;DHT22;6995;52.618;13.488;2023-05-16T07:06:28;11.80;99.90
13850;DHT22;6995;52.618;13.488;2023-05-16T07:08:54;11.80;99.90
13850;DHT22;6995;52.618;13.488;2023-05-16T07:11:19;11.70;99.90
13850;DHT22;6995;52.618;13.488;2023-05-16T07:13:45;11.70;99.90
13850;DHT22;6995;52.618;13.488;2023-05-16T07:16:11;11.60;99.90
13850;DHT22;6995;52.618;13.488;2023-05-16T07:18:37;11.60;99.90
13850;DHT22;6995;52.618;13.488;2023-05-16T07:21:03;11.60;99.90
13850;DHT22;6995;52.618;13.488;2023-05-16T07:23:28;11.80;99.90
13850;DHT22;6995;52.618;13.488;2023-05-16T07:25:54;12.00;99.90
13850;DHT22;6995;52.618;13.488;2023-05-16T07:28:19;12.20;99.90
13850;DHT22;6995;52.618;13.488;2023-05-16T07:30:46;12.30;99.90
13850;DHT22;6995;52.618;13.488;2023-05-16T07:33:12;12.40;99.90
13850;DHT22;6995;52.618;13.488;2023-05-16T07:35:37;12.40;99.90
13850;DHT22;6995;52.618;13.488;2023-05-16T07:38:03;12.40;99.90
13850;DHT22;6995;52.618;13.488;2023-05-16T07:40:29;12.20;99.90
13850;DHT22;6995;52.618;13.488;2023-05-16T07:42:55;12.30;99.90
13850;DHT22;6995;52.618;13.488;2023-05-16T07:45:28;12.10;99.90
13850;DHT22;6995;52.618;13.488;2023-05-16T07:47:54;12.30;99.90
13850;DHT22;6995;52.618;13.488;2023-05-16T07:50:19;12.30;99.90
13850;DHT22;6995;52.618;13.488;2023-05-16T07:52:45;12.30;99.90
13850;DHT22;6995;52.618;13.488;2023-05-16T07:55:11;12.50;99.90
13850;DHT22;6995;52.618;13.488;2023-05-16T07:57:36;12.70;99.90
13850;DHT22;6995;52.618;13.488;2023-05-16T08:00:02;12.70;99.90
13850;DHT22;6995;52.618;13.488;2023-05-16T08:02:28;12.60;99.90
13850;DHT22;6995;52.618;13.488;2023-05-16T08:04:55;12.50;99.90
13850;DHT22;6995;52.618;13.488;2023-05-16T08:07:22;12.50;99.90
13850;DHT22;6995;52.618;13.488;2023-05-16T08:09:48;12.50;99.90
13850;DHT22;6995;52.618;13.488;2023-05-16T08:12:13;12.60;99.90
13850;DHT22;6995;52.618;13.488;2023-05-16T08:14:39;12.60;99.90
13850;DHT22;6995;52.618;13.488;2023-05-16T08:17:05;12.50;99.90
13850;DHT22;6995;52.618;13.488;2023-05-16T08:19:31;12.50;99.90
13850;DHT22;6995;52.618;13.488;2023-05-16T08:21:57;12.70;99.90
13850;DHT22;6995;52.618;13.488;2023-05-16T08:24:23;12.60;99.90
13850;DHT22;6995;52.618;13.488;2023-05-16T08:26:49;12.60;99.90
13850;DHT22;6995;52.618;13.488;2023-05-16T08:29:15;12.60;99.90
13850;DHT22;6995;52.618;13.488;2023-05-16T08:31:42;12.60;99.90
13850;DHT22;6995;52.618;13.488;2023-05-16T08:34:07;12.50;99.90
13850;DHT22;6995;52.618;13.488;2023-05-16T08:36:37;12.60;99.90
13850;DHT22;6995;52.618;13.488;2023-05-16T08:39:03;12.60;99.90
13850;DHT22;6995;52.618;13.488;2023-05-16T08:41:29;12.70;99.90
13850;DHT22;6995;52.618;13.488;2023-05-16T08:43:56;12.90;99.90
13850;DHT22;6995;52.618;13.488;2023-05-16T08:46:22;12.80;99.90
13850;DHT22;6995;52.618;13.488;2023-05-16T08:48:52;12.60;99.90
13850;DHT22;6995;52.618;13.488;2023-05-16T08:51:19;12.70;99.90
13850;DHT22;6995;52.618;13.488;2023-05-16T08:53:53;12.60;99.90
13850;DHT22;6995;52.618;13.488;2023-05-16T08:56:19;12.40;99.90
13850;DHT22;6995;52.618;13.488;2023-05-16T08:58:47;12.40;99.90
13850;DHT22;6995;52.618;13.488;2023-05-16T09:01:13;12.40;99.90
13850;DHT22;6995;52.618;13.488;2023-05-16T09:03:40;12.30;99.90
13850;DHT22;6995;52.618;13.488;2023-05-16T09:06:06;12.40;99.90
13850;DHT22;6995;52.618;13.488;2023-05-16T09:08:32;12.50;99.90
13850;DHT22;6995;52.618;13.488;2023-05-16T09:10:59;12.50;99.90
13850;DHT22;6995;52.618;13.488;2023-05-16T09:13:25;12.60;99.90
13850;DHT22;6995;52.618;13.488;2023-05-16T09:16:08;12.80;99.90
13850;DHT22;6995;52.618;13.488;2023-05-16T09:18:34;13.10;99.90
13850;DHT22;6995;52.618;13.488;2023-05-16T09:21:00;13.20;99.90
13850;DHT22;6995;52.618;13.488;2023-05-16T09:23:27;13.00;99.90
13850;DHT22;6995;52.618;13.488;2023-05-16T09:25:52;13.00;99.90
13850;DHT22;6995;52.618;13.488;2023-05-16T09:28:18;13.00;99.90
13850;DHT22;6995;52.618;13.488;2023-05-16T09:30:45;13.10;99.90
13850;DHT22;6995;52.618;13.488;2023-05-16T09:33:11;13.20;99.90
13850;DHT22;6995;52.618;13.488;2023-05-16T09:35:37;13.20;99.90
13850;DHT22;6995;52.618;13.488;2023-05-16T09:38:03;13.00;99.90
13850;DHT22;6995;52.618;13.488;2023-05-16T09:40:28;12.80;99.90
13850;DHT22;6995;52.618;13.488;2023-05-16T09:43:05;13.00;99.90
13850;DHT22;6995;52.618;13.488;2023-05-16T09:45:31;13.10;99.90
13850;DHT22;6995;52.618;13.488;2023-05-16T09:48:04;13.00;99.90
13850;DHT22;6995;52.618;13.488;2023-05-16T09:50:32;13.20;99.90
13850;DHT22;6995;52.618;13.488;2023-05-16T09:52:58;13.20;99.90
13850;DHT22;6995;52.618;13.488;2023-05-16T09:55:24;13.10;99.90
13850;DHT22;6995;52.618;13.488;2023-05-16T09:57:50;13.10;99.90
13850;DHT22;6995;52.618;13.488;2023-05-16T10:00:16;12.90;99.90
13850;DHT22;6995;52.618;13.488;2023-05-16T10:02:42;12.70;99.90
13850;DHT22;6995;52.618;13.488;2023-05-16T10:05:08;13.00;99.90
13850;DHT22;6995;52.618;13.488;2023-05-16T10:07:34;12.80;99.90
13850;DHT22;6995;52.618;13.488;2023-05-16T10:10:04;13.00;99.90
13850;DHT22;6995;52.618;13.488;2023-05-16T10:12:32;13.00;99.90
13850;DHT22;6995;52.618;13.488;2023-05-16T10:15:00;13.10;99.90
13850;DHT22;6995;52.618;13.488;2023-05-16T10:17:29;13.00;99.90
13850;DHT22;6995;52.618;13.488;2023-05-16T10:19:57;13.20;99.90
13850;DHT22;6995;52.618;13.488;2023-05-16T10:22:26;13.40;99.90
13850;DHT22;6995;52.618;13.488;2023-05-16T10:25:09;13.30;99.90
13850;DHT22;6995;52.618;13.488;2023-05-16T10:27:37;13.20;99.90
13850;DHT22;6995;52.618;13.488;2023-05-16T10:30:05;13.00;99.90
13850;DHT22;6995;52.618;13.488;2023-05-16T10:32:32;13.10;99.90
13850;DHT22;6995;52.618;13.488;2023-05-16T10:34:58;13.00;99.90
13850;DHT22;6995;52.618;13.488;2023-05-16T10:37:31;13.40;99.90
13850;DHT22;6995;52.618;13.488;2023-05-16T10:40:01;13.40;99.90
13850;DHT22;6995;52.618;13.488;2023-05-16T10:42:31;13.40;99.90
13850;DHT22;6995;52.618;13.488;2023-05-16T10:45:15;13.40;99.90
13850;DHT22;6995;52.618;13.488;2023-05-16T10:47:50;12.80;99.90
13850;DHT22;6995;52.618;13.488;2023-05-16T10:56:05;12.60;99.90
13850;DHT22;6995;52.618;13.488;2023-05-16T11:01:31;12.80;99.90
13850;DHT22;6995;52.618;13.488;2023-05-16T11:06:34;13.10;99.90
13850;DHT22;6995;52.618;13.488;2023-05-16T11:19:51;14.70;99.90
13850;DHT22;6995;52.618;13.488;2023-05-16T11:27:31;15.40;81.90
13850;DHT22;6995;52.618;13.488;2023-05-16T11:30:20;14.90;70.10
13850;DHT22;6995;52.618;13.488;2023-05-16T11:32:46;14.80;69.40
13850;DHT22;6995;52.618;13.488;2023-05-16T11:35:15;14.80;72.40
13850;DHT22;6995;52.618;13.488;2023-05-16T11:37:42;14.40;72.30
13850;DHT22;6995;52.618;13.488;2023-05-16T11:40:09;14.00;72.60
13850;DHT22;6995;52.618;13.488;2023-05-16T11:42:40;14.00;79.40
13850;DHT22;6995;52.618;13.488;2023-05-16T11:45:07;13.90;80.10
13850;DHT22;6995;52.618;13.488;2023-05-16T11:47:36;13.80;84.40
13850;DHT22;6995;52.618;13.488;2023-05-16T11:50:13;13.70;77.80
13850;DHT22;6995;52.618;13.488;2023-05-16T11:52:42;13.80;76.30
13850;DHT22;6995;52.618;13.488;2023-05-16T11:55:08;13.90;77.20
13850;DHT22;6995;52.618;13.488;2023-05-16T11:57:40;13.90;71.90
13850;DHT22;6995;52.618;13.488;2023-05-16T12:00:16;14.20;70.40
13850;DHT22;6995;52.618;13.488;2023-05-16T12:02:47;13.90;67.50
13850;DHT22;6995;52.618;13.488;2023-05-16T12:05:13;13.90;69.10
13850;DHT22;6995;52.618;13.488;2023-05-16T12:07:41;13.90;66.10
13850;DHT22;6995;52.618;13.488;2023-05-16T12:10:08;14.60;60.20
13850;DHT22;6995;52.618;13.488;2023-05-16T12:12:35;15.30;54.00
13850;DHT22;6995;52.618;13.488;2023-05-16T12:15:04;16.30;42.60
13850;DHT22;6995;52.618;13.488;2023-05-16T12:17:31;17.00;30.20
13850;DHT22;6995;52.618;13.488;2023-05-16T12:19:58;16.50;26.70
13850;DHT22;6995;52.618;13.488;2023-05-16T12:22:24;16.50;27.30
13850;DHT22;6995;52.618;13.488;2023-05-16T12:24:50;16.70;27.30
13850;DHT22;6995;52.618;13.488;2023-05-16T12:27:25;17.10;24.80
13850;DHT22;6995;52.618;13.488;2023-05-16T12:29:52;16.70;24.10
13850;DHT22;6995;52.618;13.488;2023-05-16T12:32:21;16.40;23.60
13850;DHT22;6995;52.618;13.488;2023-05-16T12:34:50;15.60;26.10
13850;DHT22;6995;52.618;13.488;2023-05-16T12:37:17;15.60;28.40
13850;DHT22;6995;52.618;13.488;2023-05-16T12:39:42;15.90;27.10
13850;DHT22;6995;52.618;13.488;2023-05-16T12:42:11;16.20;26.60
13850;DHT22;6995;52.618;13.488;2023-05-16T12:44:38;16.40;50.10
13850;DHT22;6995;52.618;13.488;2023-05-16T12:47:10;16.10;24.40
13850;DHT22;6995;52.618;13.488;2023-05-16T12:49:42;16.10;23.80
13850;DHT22;6995;52.618;13.488;2023-05-16T12:52:17;16.50;20.60
13850;DHT22;6995;52.618;13.488;2023-05-16T12:54:45;16.80;20.00
13850;DHT22;6995;52.618;13.488;2023-05-16T12:57:11;16.80;17.90
13850;DHT22;6995;52.618;13.488;2023-05-16T12:59:36;16.90;16.80
13850;DHT22;6995;52.618;13.488;2023-05-16T13:02:02;17.20;19.20
13850;DHT22;6995;52.618;13.488;2023-05-16T13:04:28;18.50;12.30
13850;DHT22;6995;52.618;13.488;2023-05-16T13:06:55;19.30;9.70
13850;DHT22;6995;52.618;13.488;2023-05-16T13:09:21;19.20;4.20
13850;DHT22;6995;52.618;13.488;2023-05-16T13:11:47;18.70;25.50
13850;DHT22;6995;52.618;13.488;2023-05-16T13:14:13;18.00;6.00
13850;DHT22;6995;52.618;13.488;2023-05-16T13:16:39;17.90;7.80
13850;DHT22;6995;52.618;13.488;2023-05-16T13:19:05;17.20;6.70
13850;DHT22;6995;52.618;13.488;2023-05-16T13:21:32;17.10;9.90
13850;DHT22;6995;52.618;13.488;2023-05-16T13:23:57;16.60;11.50
13850;DHT22;6995;52.618;13.488;2023-05-16T13:26:23;16.40;11.00
13850;DHT22;6995;52.618;13.488;2023-05-16T13:29:00;16.70;11.20
13850;DHT22;6995;52.618;13.488;2023-05-16T13:31:43;16.80;13.00
13850;DHT22;6995;52.618;13.488;2023-05-16T13:34:09;18.20;8.20
13850;DHT22;6995;52.618;13.488;2023-05-16T13:36:35;19.50;3.30
13850;DHT22;6995;52.618;13.488;2023-05-16T13:39:01;19.00;1.00
13850;DHT22;6995;52.618;13.488;2023-05-16T13:41:26;18.00;1.00
13850;DHT22;6995;52.618;13.488;2023-05-16T13:43:52;17.20;4.80
13850;DHT22;6995;52.618;13.488;2023-05-16T13:46:17;17.00;8.20
13850;DHT22;6995;52.618;13.488;2023-05-16T13:48:43;16.40;8.10
13850;DHT22;6995;52.618;13.488;2023-05-16T13:51:09;17.10;9.50
13850;DHT22;6995;52.618;13.488;2023-05-16T13:53:35;17.60;4.00
13850;DHT22;6995;52.618;13.488;2023-05-16T13:56:01;17.60;4.80
13850;DHT22;6995;52.618;13.488;2023-05-16T13:58:27;16.90;4.00
13850;DHT22;6995;52.618;13.488;2023-05-16T14:00:53;16.70;5.30
13850;DHT22;6995;52.618;13.488;2023-05-16T14:03:18;17.10;5.60
13850;DHT22;6995;52.618;13.488;2023-05-16T14:05:44;17.00;4.40
13850;DHT22;6995;52.618;13.488;2023-05-16T14:08:10;18.00;4.90
13850;DHT22;6995;52.618;13.488;2023-05-16T14:10:36;19.40;1.00
13850;DHT22;6995;52.618;13.488;2023-05-16T14:13:01;18.40;1.00
13850;DHT22;6995;52.618;13.488;2023-05-16T14:15:27;18.90;1.00
13850;DHT22;6995;52.618;13.488;2023-05-16T14:17:52;19.30;1.00
13850;DHT22;6995;52.618;13.488;2023-05-16T14:20:18;18.80;1.00
13850;DHT22;6995;52.618;13.488;2023-05-16T14:22:44;18.20;1.00
13850;DHT22;6995;52.618;13.488;2023-05-16T14:25:09;18.00;1.00
13850;DHT22;6995;52.618;13.488;2023-05-16T14:27:35;18.20;1.00
13850;DHT22;6995;52.618;13.488;2023-05-16T14:30:01;18.50;1.00
13850;DHT22;6995;52.618;13.488;2023-05-16T14:32:26;18.20;1.00
13850;DHT22;6995;52.618;13.488;2023-05-16T14:34:52;18.70;1.00
13850;DHT22;6995;52.618;13.488;2023-05-16T14:37:43;19.70;4.50
13850;DHT22;6995;52.618;13.488;2023-05-16T14:40:08;20.50;19.90
13850;DHT22;6995;52.618;13.488;2023-05-16T14:42:34;20.90;1.00
13850;DHT22;6995;52.618;13.488;2023-05-16T14:45:00;21.60;1.00
13850;DHT22;6995;52.618;13.488;2023-05-16T14:47:26;21.80;1.00
13850;DHT22;6995;52.618;13.488;2023-05-16T14:49:53;21.60;1.00
13850;DHT22;6995;52.618;13.488;2023-05-16T14:52:19;20.80;1.00
13850;DHT22;6995;52.618;13.488;2023-05-16T14:54:45;20.30;1.00
13850;DHT22;6995;52.618;13.488;2023-05-16T14:57:10;20.10;1.00
13850;DHT22;6995;52.618;13.488;2023-05-16T14:59:36;19.10;1.00
13850;DHT22;6995;52.618;13.488;2023-05-16T15:02:02;18.60;1.00
13850;DHT22;6995;52.618;13.488;2023-05-16T15:04:28;18.80;1.00
13850;DHT22;6995;52.618;13.488;2023-05-16T15:06:53;18.50;1.00
13850;DHT22;6995;52.618;13.488;2023-05-16T15:09:19;19.90;1.00
13850;DHT22;6995;52.618;13.488;2023-05-16T15:11:45;20.20;1.00
13850;DHT22;6995;52.618;13.488;2023-05-16T15:14:11;21.00;1.00
13850;DHT22;6995;52.618;13.488;2023-05-16T15:16:37;20.00;1.00
13850;DHT22;6995;52.618;13.488;2023-05-16T15:19:02;20.20;1.00
13850;DHT22;6995;52.618;13.488;2023-05-16T15:21:28;21.90;1.00
13850;DHT22;6995;52.618;13.488;2023-05-16T15:23:55;22.10;1.00
13850;DHT22;6995;52.618;13.488;2023-05-16T15:26:21;22.10;1.00
13850;DHT22;6995;52.618;13.488;2023-05-16T15:28:47;22.20;1.00
13850;DHT22;6995;52.618;13.488;2023-05-16T15:31:12;20.80;1.00
13850;DHT22;6995;52.618;13.488;2023-05-16T15:33:41;20.90;1.00
13850;DHT22;6995;52.618;13.488;2023-05-16T15:36:07;21.30;1.00
13850;DHT22;6995;52.618;13.488;2023-05-16T15:38:32;21.40;1.00
13850;DHT22;6995;52.618;13.488;2023-05-16T15:40:58;21.70;1.00
13850;DHT22;6995;52.618;13.488;2023-05-16T15:43:24;22.60;1.00
13850;DHT22;6995;52.618;13.488;2023-05-16T15:45:49;23.00;1.00
13850;DHT22;6995;52.618;13.488;2023-05-16T15:48:15;22.30;1.00
13850;DHT22;6995;52.618;13.488;2023-05-16T15:50:41;21.10;1.00
13850;DHT22;6995;52.618;13.488;2023-05-16T15:53:07;21.10;1.00
13850;DHT22;6995;52.618;13.488;2023-05-16T15:55:33;21.50;1.00
13850;DHT22;6995;52.618;13.488;2023-05-16T15:57:59;21.20;1.00
13850;DHT22;6995;52.618;13.488;2023-05-16T16:00:24;20.50;1.00
13850;DHT22;6995;52.618;13.488;2023-05-16T16:02:50;20.00;1.00
13850;DHT22;6995;52.618;13.488;2023-05-16T16:05:16;19.10;1.00
13850;DHT22;6995;52.618;13.488;2023-05-16T16:07:41;18.90;1.00
13850;DHT22;6995;52.618;13.488;2023-05-16T16:10:08;18.90;1.00
13850;DHT22;6995;52.618;13.488;2023-05-16T16:12:33;19.40;1.00
13850;DHT22;6995;52.618;13.488;2023-05-16T16:15:01;19.10;1.00
13850;DHT22;6995;52.618;13.488;2023-05-16T16:17:27;18.80;1.00